createdAt,value
2023-01-03T00:02:57.188Z,1.70
2023-01-03T00:05:43.817Z,1.83
2023-01-03T00:11:58.262Z,1.88
2023-01-03T00:17:54.639Z,1.85
2023-01-03T00:20:46.673Z,2.38
2023-01-03T00:23:18.484Z,2.88
2023-01-03T00:26:02.787Z,1.65
2023-01-03T00:34:53.170Z,1.45
2023-01-03T00:37:49.906Z,2.13
2023-01-03T00:43:34.118Z,2.60
2023-01-03T00:46:26.377Z,2.25
2023-01-03T00:49:01.605Z,2.35
2023-01-03T00:52:11.644Z,2.25
2023-01-03T00:55:18.808Z,2.60
2023-01-03T00:57:51.354Z,2.55
2023-01-03T01:00:32.273Z,2.35
2023-01-03T01:03:16.654Z,3.17
2023-01-03T01:05:56.411Z,2.78
2023-01-03T01:08:28.896Z,2.15
2023-01-03T01:11:18.750Z,2.13
2023-01-03T01:14:01.939Z,3.08
2023-01-03T01:16:39.501Z,2.03
2023-01-03T01:19:15.560Z,2.45
2023-01-03T01:21:57.808Z,2.20
2023-01-03T01:24:36.077Z,3.47
2023-01-03T01:27:06.759Z,2.20
2023-01-03T01:32:30.077Z,3.00
2023-01-03T01:35:12.610Z,2.65
2023-01-03T01:37:52.927Z,3.63
2023-01-03T01:40:27.612Z,2.88
2023-01-03T01:43:18.538Z,3.15
2023-01-03T01:45:49.285Z,2.97
2023-01-03T01:48:22.376Z,2.53
2023-01-03T01:51:09.184Z,2.95
2023-01-03T01:53:57.821Z,2.70
2023-01-03T01:56:43.314Z,2.70
2023-01-03T01:59:13.103Z,2.75
2023-01-03T02:01:57.254Z,2.72
2023-01-03T02:06:55.460Z,3.30
2023-01-03T02:09:36.211Z,3.58
2023-01-03T02:12:28.201Z,3.35
2023-01-03T02:15:07.250Z,3.63
2023-01-03T02:17:42.215Z,2.30
2023-01-03T02:20:20.673Z,4.20
2023-01-03T02:23:09.854Z,3.13
2023-01-03T02:25:57.286Z,5.03
2023-01-03T02:28:58.655Z,2.65
2023-01-03T02:31:31.503Z,2.58
2023-01-03T02:34:05.090Z,2.60
2023-01-03T02:36:40.070Z,2.75
2023-01-03T02:39:13.525Z,3.15
2023-01-03T02:41:47.236Z,2.85
2023-01-03T02:44:19.253Z,3.33
2023-01-03T02:46:51.883Z,3.38
2023-01-03T02:49:27.301Z,3.85
2023-01-03T02:52:01.151Z,3.33
2023-01-03T02:57:05.707Z,4.05
2023-01-03T02:59:37.688Z,3.42
2023-01-03T03:02:09.678Z,3.55
2023-01-03T03:04:40.584Z,3.83
2023-01-03T03:07:10.594Z,3.33
2023-01-03T03:10:00.427Z,3.25
2023-01-03T03:12:50.302Z,3.65
2023-01-03T03:15:20.029Z,3.95
2023-01-03T03:17:50.296Z,4.25
2023-01-03T03:20:37.142Z,4.32
2023-01-03T03:23:30.069Z,3.80
2023-01-03T03:26:05.540Z,4.03
2023-01-03T03:28:43.559Z,3.22
2023-01-03T03:31:14.580Z,4.20
2023-01-03T03:33:51.929Z,3.28
2023-01-03T03:36:28.577Z,3.20
2023-01-03T03:39:06.382Z,4.38
2023-01-03T03:42:00.798Z,3.55
2023-01-03T03:47:22.221Z,3.83
2023-01-03T03:50:08.277Z,3.88
2023-01-03T03:52:45.351Z,3.90
2023-01-03T03:55:23.630Z,3.80
2023-01-03T03:57:59.302Z,3.58
2023-01-03T04:00:33.132Z,5.05
2023-01-03T04:08:37.381Z,3.72
2023-01-03T04:11:10.440Z,3.63
2023-01-03T04:13:48.094Z,3.28
2023-01-03T04:16:30.149Z,3.60
2023-01-03T04:19:04.620Z,3.78
2023-01-03T04:21:38.270Z,4.22
2023-01-03T04:24:09.248Z,5.32
2023-01-03T04:26:40.862Z,4.63
2023-01-03T04:29:13.428Z,4.93
2023-01-03T04:31:42.353Z,4.75
2023-01-03T04:34:17.609Z,5.57
2023-01-03T04:36:47.268Z,4.43
2023-01-03T04:39:17.637Z,6.18
2023-01-03T04:41:46.544Z,5.35
2023-01-03T04:44:16.618Z,4.40
2023-01-03T04:46:52.832Z,4.70
2023-01-03T04:49:23.479Z,4.20
2023-01-03T04:51:52.315Z,4.45
2023-01-03T04:54:22.620Z,5.40
2023-01-03T04:56:51.277Z,5.10
2023-01-03T04:59:21.668Z,5.72
2023-01-03T05:01:52.715Z,5.78
2023-01-03T05:04:21.745Z,4.88
2023-01-03T05:06:50.412Z,6.35
2023-01-03T05:09:19.163Z,6.10
2023-01-03T05:11:50.670Z,5.45
2023-01-03T05:14:19.313Z,6.07
2023-01-03T05:16:48.121Z,7.05
2023-01-03T05:19:16.892Z,7.07
2023-01-03T05:22:05.186Z,6.05
2023-01-03T05:24:56.616Z,6.20
2023-01-03T05:27:31.407Z,6.50
2023-01-03T05:30:02.069Z,7.80
2023-01-03T05:32:33.216Z,6.15
2023-01-03T05:35:02.168Z,6.25
2023-01-03T05:37:30.920Z,6.32
2023-01-03T05:40:11.118Z,6.40
2023-01-03T05:42:41.452Z,6.68
2023-01-03T05:45:10.779Z,6.55
2023-01-03T05:47:41.553Z,7.70
2023-01-03T05:50:10.704Z,5.15
2023-01-03T05:52:39.951Z,6.97
2023-01-03T05:55:10.353Z,6.82
2023-01-03T05:57:40.847Z,6.40
2023-01-03T06:00:12.954Z,6.05
2023-01-03T06:02:42.474Z,7.20
2023-01-03T06:05:11.596Z,6.32
2023-01-03T06:07:40.632Z,6.85
2023-01-03T06:10:13.038Z,7.30
2023-01-03T06:12:43.904Z,6.38
2023-01-03T06:15:17.448Z,7.03
2023-01-03T06:18:05.479Z,6.90
2023-01-03T06:20:39.071Z,8.15
2023-01-03T06:23:08.091Z,9.38
2023-01-03T06:25:37.019Z,8.63
2023-01-03T06:28:13.317Z,7.20
2023-01-03T06:30:48.126Z,7.07
2023-01-03T06:33:21.699Z,5.78
2023-01-03T06:35:50.723Z,6.13
2023-01-03T06:38:19.689Z,5.63
2023-01-03T06:40:51.543Z,5.80
2023-01-03T06:43:22.504Z,5.32
2023-01-03T06:46:10.349Z,6.72
2023-01-03T06:48:56.940Z,8.00
2023-01-03T06:51:46.445Z,8.80
2023-01-03T06:54:24.896Z,10.55
2023-01-03T06:57:00.205Z,11.98
2023-01-03T06:59:45.300Z,10.90
2023-01-03T07:02:16.482Z,10.77
2023-01-03T07:04:49.939Z,23.92
2023-01-03T07:07:18.661Z,11.60
2023-01-03T07:09:49.794Z,8.73
2023-01-03T07:12:38.086Z,8.32
2023-01-03T07:15:07.331Z,7.80
2023-01-03T07:17:42.921Z,8.10
2023-01-03T07:20:13.719Z,9.10
2023-01-03T07:22:50.588Z,18.48
2023-01-03T07:25:24.021Z,14.73
2023-01-03T07:28:12.767Z,10.52
2023-01-03T07:30:47.090Z,11.52
2023-01-03T07:33:25.297Z,9.93
2023-01-03T07:36:14.674Z,11.00
2023-01-03T07:38:52.062Z,11.95
2023-01-03T07:41:32.332Z,18.85
2023-01-03T07:47:07.339Z,14.45
2023-01-03T07:49:38.481Z,16.10
2023-01-03T07:52:16.367Z,16.55
2023-01-03T07:55:02.416Z,12.30
2023-01-03T07:57:43.025Z,15.85
2023-01-03T08:00:15.596Z,13.02
2023-01-03T08:02:48.986Z,15.35
2023-01-03T08:05:25.135Z,18.70
2023-01-03T08:07:56.483Z,16.15
2023-01-03T08:10:44.759Z,17.17
2023-01-03T08:13:19.504Z,17.90
2023-01-03T08:15:51.279Z,18.92
2023-01-03T08:18:27.645Z,17.45
2023-01-03T08:21:04.114Z,19.40
2023-01-03T08:23:41.607Z,19.55
2023-01-03T08:26:35.033Z,18.92
2023-01-03T08:29:12.554Z,17.63
2023-01-03T08:31:47.648Z,19.38
2023-01-03T08:34:29.061Z,16.13
2023-01-03T08:37:03.038Z,24.35
2023-01-03T08:39:46.312Z,34.22
2023-01-03T08:42:21.343Z,19.23
2023-01-03T08:44:57.452Z,21.83
2023-01-03T08:47:28.844Z,17.63
2023-01-03T08:49:59.718Z,15.25
2023-01-03T08:52:35.086Z,18.33
2023-01-03T08:55:04.696Z,19.65
2023-01-03T08:57:44.411Z,19.42
2023-01-03T09:00:16.015Z,18.65
2023-01-03T09:02:45.375Z,21.48
2023-01-03T09:05:16.356Z,24.30
2023-01-03T09:07:46.780Z,22.15
2023-01-03T09:10:15.572Z,22.20
2023-01-03T09:12:44.566Z,19.48
2023-01-03T09:15:20.984Z,19.98
2023-01-03T09:17:51.855Z,19.17
2023-01-03T09:20:21.532Z,18.65
2023-01-03T09:22:52.217Z,23.58
2023-01-03T09:25:21.162Z,25.17
2023-01-03T09:28:07.119Z,20.63
2023-01-03T09:30:45.222Z,19.58
2023-01-03T09:33:14.271Z,19.45
2023-01-03T09:35:46.773Z,19.30
2023-01-03T09:38:30.964Z,19.45
2023-01-03T09:43:32.632Z,19.33
2023-01-03T09:46:03.563Z,21.13
2023-01-03T09:48:35.715Z,21.23
2023-01-03T09:51:31.172Z,19.27
2023-01-03T09:54:25.391Z,24.70
2023-01-03T09:57:11.997Z,22.52
2023-01-03T09:59:58.458Z,21.08
2023-01-03T10:03:03.514Z,20.05
2023-01-03T10:05:41.129Z,18.63
2023-01-03T10:08:32.442Z,19.42
2023-01-03T10:11:12.253Z,16.58
2023-01-03T10:13:48.542Z,16.55
2023-01-03T10:16:22.845Z,17.02
2023-01-03T10:19:07.211Z,14.52
2023-01-03T10:21:46.579Z,16.65
2023-01-03T10:24:24.206Z,17.98
2023-01-03T10:27:07.072Z,18.45
2023-01-03T10:29:36.254Z,15.20
2023-01-03T10:32:25.043Z,26.45
2023-01-03T10:35:04.071Z,16.80
2023-01-03T10:37:35.309Z,13.10
2023-01-03T10:40:18.373Z,12.15
2023-01-03T10:42:55.846Z,11.13
2023-01-03T10:45:28.870Z,12.57
2023-01-03T10:48:02.603Z,7.70
2023-01-03T10:50:41.990Z,10.63
2023-01-03T10:53:11.560Z,11.80
2023-01-03T10:55:46.636Z,9.02
2023-01-03T10:58:21.235Z,12.70
2023-01-03T11:00:50.169Z,10.10
2023-01-03T11:03:20.832Z,8.82
2023-01-03T11:05:50.523Z,10.27
2023-01-03T11:08:24.417Z,10.52
2023-01-03T11:11:01.959Z,9.02
2023-01-03T11:13:39.482Z,7.72
2023-01-03T11:16:15.532Z,7.88
2023-01-03T11:18:45.744Z,7.40
2023-01-03T11:21:23.566Z,8.90
2023-01-03T11:24:01.758Z,6.93
2023-01-03T11:26:41.770Z,6.80
2023-01-03T11:29:27.315Z,7.28
2023-01-03T11:32:03.151Z,8.38
2023-01-03T11:35:21.556Z,7.07
2023-01-03T11:37:46.822Z,7.10
2023-01-03T11:40:34.524Z,7.68
2023-01-03T11:43:17.942Z,8.02
2023-01-03T11:46:13.636Z,7.13
2023-01-03T11:49:21.714Z,7.95
2023-01-03T11:52:04.599Z,8.23
2023-01-03T11:54:53.602Z,7.47
2023-01-03T11:57:43.340Z,8.75
2023-01-03T12:00:25.743Z,10.27
2023-01-03T12:03:20.218Z,7.75
2023-01-03T12:06:17.956Z,6.50
2023-01-03T12:09:14.618Z,8.20
2023-01-03T12:12:04.927Z,5.82
2023-01-03T12:14:53.790Z,5.25
2023-01-03T12:17:57.310Z,5.15
2023-01-03T12:20:37.945Z,6.40
2023-01-03T12:23:24.927Z,6.63
2023-01-03T12:26:01.269Z,7.50
2023-01-03T12:28:36.790Z,4.68
2023-01-03T12:31:33.920Z,4.20
2023-01-03T12:34:10.755Z,3.95
2023-01-03T12:36:52.431Z,4.15
2023-01-03T12:39:35.078Z,3.65
2023-01-03T12:42:16.987Z,3.97
2023-01-03T12:44:47.205Z,5.25
2023-01-03T12:47:33.326Z,5.32
2023-01-03T13:09:13.878Z,6.05
2023-01-03T13:20:11.375Z,7.22
2023-01-03T13:22:53.971Z,5.45
2023-01-03T13:25:36.362Z,7.30
2023-01-03T13:28:22.682Z,6.32
2023-01-03T13:30:51.747Z,5.97
2023-01-03T13:41:40.892Z,7.97
2023-01-03T13:44:30.065Z,5.63
2023-01-03T13:47:01.463Z,7.32
2023-01-03T13:49:47.635Z,6.68
2023-01-03T13:55:50.760Z,6.10
2023-01-03T13:58:40.977Z,7.18
2023-01-03T14:01:22.247Z,5.72
2023-01-03T14:04:09.733Z,5.82
2023-01-03T14:06:59.909Z,6.38
2023-01-03T14:09:44.648Z,6.90
2023-01-03T14:12:33.129Z,6.63
2023-01-03T14:15:40.257Z,6.55
2023-01-03T14:18:29.269Z,6.15
2023-01-03T14:21:00.192Z,5.32
2023-01-03T14:23:59.100Z,8.02
2023-01-03T14:26:26.463Z,3.85
2023-01-03T14:29:31.032Z,4.15
2023-01-03T14:32:53.169Z,3.70
2023-01-03T14:43:16.194Z,4.72
2023-01-03T14:49:49.322Z,6.30
2023-01-03T14:57:32.195Z,4.22
2023-01-03T15:13:44.925Z,6.45
2023-01-03T15:20:26.923Z,6.03
2023-01-03T16:47:25.691Z,9.20
2023-01-03T16:54:13.661Z,8.70
2023-01-03T17:14:30.437Z,13.18
2023-01-03T17:20:15.189Z,6.72
2023-01-03T17:23:03.284Z,8.70
2023-01-03T17:25:39.441Z,7.30
2023-01-03T17:28:29.138Z,7.82
2023-01-03T17:31:30.697Z,7.47
2023-01-03T17:34:22.884Z,5.80
2023-01-03T17:37:01.573Z,6.85
2023-01-03T17:39:59.862Z,9.18
2023-01-03T17:42:49.154Z,6.03
2023-01-03T17:49:59.012Z,8.25
2023-01-03T17:52:44.208Z,12.80
2023-01-03T17:58:59.009Z,10.65
2023-01-03T18:19:20.134Z,18.08
2023-01-03T18:22:12.945Z,11.60
2023-01-03T18:24:43.009Z,11.40
2023-01-03T18:27:14.523Z,6.05
2023-01-03T18:32:42.305Z,7.63
2023-01-03T18:35:12.380Z,18.92
2023-01-03T18:37:44.113Z,8.85
2023-01-03T18:40:19.229Z,15.57
2023-01-03T18:43:10.735Z,24.30
2023-01-03T18:45:40.517Z,29.00
2023-01-03T18:48:09.240Z,19.08
2023-01-03T18:50:39.033Z,17.25
2023-01-03T18:53:09.700Z,14.75
2023-01-03T18:55:45.987Z,14.30
2023-01-03T18:59:02.632Z,15.82
2023-01-03T19:01:34.071Z,11.05
2023-01-03T19:04:07.660Z,11.05
2023-01-03T19:06:42.373Z,10.88
2023-01-03T19:09:15.705Z,11.40
2023-01-03T19:11:48.240Z,14.70
2023-01-03T19:14:22.754Z,13.57
2023-01-03T19:17:20.434Z,13.15
2023-01-03T19:20:10.332Z,10.88
2023-01-03T19:23:17.034Z,11.30
2023-01-03T19:30:19.317Z,11.55
2023-01-03T19:33:02.829Z,11.32
2023-01-03T19:35:31.538Z,10.80
2023-01-03T19:38:20.143Z,12.75
2023-01-03T19:40:50.893Z,11.77
2023-01-03T19:43:22.964Z,11.98
2023-01-03T19:45:55.276Z,13.70
2023-01-03T19:48:29.712Z,11.65
2023-01-03T19:51:00.853Z,10.75
2023-01-03T19:53:30.587Z,9.48
2023-01-03T19:56:13.016Z,10.27
2023-01-03T19:58:49.835Z,8.77
2023-01-03T20:01:50.524Z,10.23
2023-01-03T20:04:39.066Z,9.25
2023-01-03T20:07:20.054Z,8.80
2023-01-03T20:09:55.248Z,11.27
2023-01-03T20:12:38.710Z,10.63
2023-01-03T20:15:18.033Z,9.52
2023-01-03T20:18:00.895Z,13.80
2023-01-03T20:20:45.198Z,13.88
2023-01-03T20:23:41.929Z,12.60
2023-01-03T20:26:36.490Z,11.55
2023-01-03T20:29:20.303Z,8.35
2023-01-03T20:34:29.143Z,10.82
2023-01-03T20:37:02.378Z,8.88
2023-01-03T20:42:48.086Z,11.63
2023-01-03T20:45:37.458Z,11.32
2023-01-03T20:48:11.939Z,9.35
2023-01-03T20:50:58.363Z,10.85
2023-01-03T20:53:54.185Z,8.25
2023-01-03T20:56:37.741Z,9.30
2023-01-03T20:59:09.342Z,9.00
2023-01-03T21:01:52.364Z,10.13
2023-01-03T21:04:24.099Z,12.77
2023-01-03T21:06:55.850Z,10.93
2023-01-03T21:09:24.522Z,14.52
2023-01-03T21:12:01.800Z,14.80
2023-01-03T21:14:39.781Z,14.05
2023-01-03T21:17:18.813Z,11.40
2023-01-03T21:19:58.966Z,12.68
2023-01-03T21:22:31.552Z,11.57
2023-01-03T21:25:07.431Z,12.70
2023-01-03T21:27:37.691Z,12.35
2023-01-03T21:30:13.458Z,12.90
2023-01-03T21:32:46.802Z,12.98
2023-01-03T21:35:16.503Z,13.38
2023-01-03T21:37:47.059Z,12.65
2023-01-03T21:40:20.134Z,14.45
2023-01-03T21:43:04.676Z,12.25
2023-01-03T21:45:35.338Z,14.02
2023-01-03T21:48:05.245Z,13.05
2023-01-03T21:50:40.721Z,12.52
2023-01-03T21:53:13.165Z,11.85
2023-01-03T21:55:48.220Z,12.32
2023-01-03T21:58:21.303Z,11.27
2023-01-03T22:00:50.359Z,11.40
2023-01-03T22:03:36.784Z,10.15
2023-01-03T22:06:09.486Z,11.48
2023-01-03T22:08:41.879Z,10.52
2023-01-03T22:11:10.645Z,12.88
2023-01-03T22:13:39.665Z,11.32
2023-01-03T22:16:09.267Z,8.63
2023-01-03T22:18:38.487Z,9.65
2023-01-03T22:21:09.742Z,7.65
2023-01-03T22:23:45.536Z,7.22
2023-01-03T22:26:15.033Z,8.57
2023-01-03T22:28:45.425Z,8.57
2023-01-03T22:31:17.561Z,7.88
2023-01-03T22:33:46.806Z,11.90
2023-01-03T22:36:18.818Z,6.85
2023-01-03T22:38:49.297Z,7.10
2023-01-03T22:41:18.893Z,7.97
2023-01-03T22:43:48.113Z,7.75
2023-01-03T22:46:18.533Z,7.82
2023-01-03T22:48:47.611Z,8.20
2023-01-03T22:51:19.555Z,7.68
2023-01-03T22:53:49.700Z,8.02
2023-01-03T22:56:18.860Z,8.30
2023-01-03T22:58:48.017Z,9.50
2023-01-03T23:01:17.884Z,8.55
2023-01-03T23:03:47.747Z,8.15
2023-01-03T23:06:17.445Z,8.23
2023-01-03T23:08:47.555Z,10.20
2023-01-03T23:11:36.329Z,8.88
2023-01-03T23:14:06.301Z,8.45
2023-01-03T23:16:35.195Z,8.32
2023-01-03T23:19:04.488Z,7.15
2023-01-03T23:21:33.114Z,6.28
2023-01-03T23:24:01.875Z,7.07
2023-01-03T23:26:31.888Z,8.65
2023-01-03T23:29:01.340Z,5.47
2023-01-03T23:31:30.621Z,6.85
2023-01-03T23:34:00.804Z,6.63
2023-01-03T23:36:29.863Z,7.32
2023-01-03T23:39:01.540Z,7.82
2023-01-03T23:41:30.407Z,6.70
2023-01-03T23:44:00.629Z,6.93
2023-01-03T23:46:31.683Z,6.80
2023-01-03T23:49:00.618Z,7.57
2023-01-03T23:51:32.356Z,8.05
2023-01-03T23:54:01.363Z,7.03
2023-01-03T23:56:30.262Z,9.00
2023-01-03T23:59:00.388Z,6.43
